createdAt,value
2023-09-10T00:00:38.030Z,10.63
2023-09-10T00:03:07.505Z,10.52
2023-09-10T00:05:35.497Z,11.07
2023-09-10T00:08:03.415Z,11.02
2023-09-10T00:10:31.821Z,10.40
2023-09-10T00:13:01.436Z,10.73
2023-09-10T00:15:29.161Z,10.70
2023-09-10T00:17:56.988Z,10.27
2023-09-10T00:20:28.212Z,10.30
2023-09-10T00:22:57.814Z,10.63
2023-09-10T00:25:25.878Z,10.98
2023-09-10T00:27:53.717Z,11.53
2023-09-10T00:30:21.682Z,10.60
2023-09-10T00:32:49.448Z,11.23
2023-09-10T00:35:17.456Z,10.40
2023-09-10T00:37:47.932Z,10.50
2023-09-10T00:40:15.724Z,11.17
2023-09-10T00:42:43.572Z,11.07
2023-09-10T00:45:13.420Z,10.70
2023-09-10T00:47:43.576Z,10.60
2023-09-10T00:50:12.151Z,11.57
2023-09-10T00:52:41.464Z,11.20
2023-09-10T00:55:10.694Z,11.87
2023-09-10T00:57:38.749Z,11.27
2023-09-10T01:00:15.475Z,10.60
2023-09-10T01:02:44.696Z,10.60
2023-09-10T01:05:13.458Z,11.50
2023-09-10T01:07:41.536Z,11.23
2023-09-10T01:10:11.333Z,10.87
2023-09-10T01:12:43.268Z,11.63
2023-09-10T01:15:14.511Z,11.57
2023-09-10T01:17:44.431Z,11.00
2023-09-10T01:20:21.753Z,11.33
2023-09-10T01:22:56.356Z,11.07
2023-09-10T01:25:25.623Z,11.47
2023-09-10T01:27:53.510Z,11.53
2023-09-10T01:30:21.570Z,11.20
2023-09-10T01:32:50.224Z,11.57
2023-09-10T01:35:21.027Z,12.00
2023-09-10T01:37:54.113Z,11.20
2023-09-10T01:40:23.867Z,11.20
2023-09-10T01:42:53.187Z,10.97
2023-09-10T01:45:21.135Z,11.17
2023-09-10T01:47:49.371Z,10.80
2023-09-10T01:50:17.737Z,10.57
2023-09-10T01:52:45.763Z,11.07
2023-09-10T01:55:14.642Z,11.40
2023-09-10T01:57:42.748Z,11.30
2023-09-10T02:00:13.576Z,11.00
2023-09-10T02:02:42.307Z,11.40
2023-09-10T02:05:10.483Z,11.07
2023-09-10T02:07:38.429Z,12.40
2023-09-10T02:10:07.550Z,11.83
2023-09-10T02:12:36.203Z,10.97
2023-09-10T02:15:04.973Z,11.00
2023-09-10T02:17:35.560Z,12.00
2023-09-10T02:20:06.770Z,10.43
2023-09-10T02:22:34.703Z,11.43
2023-09-10T02:25:04.324Z,10.93
2023-09-10T02:27:32.737Z,11.07
2023-09-10T02:30:00.607Z,11.83
2023-09-10T02:32:29.144Z,11.60
2023-09-10T02:34:58.854Z,11.77
2023-09-10T02:37:26.786Z,11.53
2023-09-10T02:39:55.094Z,12.00
2023-09-10T02:42:23.123Z,11.23
2023-09-10T02:44:51.137Z,11.77
2023-09-10T02:47:19.465Z,11.77
2023-09-10T02:49:47.691Z,12.13
2023-09-10T02:52:17.199Z,11.60
2023-09-10T02:54:45.449Z,11.17
2023-09-10T02:57:13.320Z,11.07
2023-09-10T02:59:41.363Z,11.30
2023-09-10T03:02:09.328Z,11.50
2023-09-10T03:04:37.524Z,11.47
2023-09-10T03:07:05.691Z,10.70
2023-09-10T03:09:35.201Z,11.60
2023-09-10T03:12:21.104Z,11.37
2023-09-10T03:14:49.144Z,11.07
2023-09-10T03:17:17.991Z,11.23
2023-09-10T03:19:45.983Z,11.53
2023-09-10T03:22:14.064Z,11.87
2023-09-10T03:24:46.874Z,11.03
2023-09-10T03:27:14.907Z,11.40
2023-09-10T03:29:43.927Z,12.10
2023-09-10T03:32:12.000Z,11.70
2023-09-10T03:34:40.700Z,11.57
2023-09-10T03:37:08.719Z,11.53
2023-09-10T03:39:37.667Z,12.30
2023-09-10T03:42:10.457Z,11.37
2023-09-10T03:44:38.820Z,12.07
2023-09-10T03:47:06.967Z,12.47
2023-09-10T03:49:35.589Z,12.47
2023-09-10T03:52:04.096Z,13.00
2023-09-10T03:54:32.021Z,11.00
2023-09-10T03:57:00.336Z,12.60
2023-09-10T03:59:30.952Z,11.83
2023-09-10T04:02:00.504Z,11.70
2023-09-10T04:04:30.151Z,11.57
2023-09-10T04:06:58.377Z,12.30
2023-09-10T04:09:26.415Z,11.33
2023-09-10T04:11:54.353Z,12.50
2023-09-10T04:14:24.152Z,12.43
2023-09-10T04:16:55.174Z,11.53
2023-09-10T04:19:24.105Z,11.60
2023-09-10T04:21:52.116Z,12.30
2023-09-10T04:24:20.532Z,11.97
2023-09-10T04:26:48.920Z,12.33
2023-09-10T04:29:16.879Z,11.07
2023-09-10T04:31:45.311Z,11.87
2023-09-10T04:34:14.876Z,12.03
2023-09-10T04:36:42.912Z,11.57
2023-09-10T04:39:10.998Z,12.40
2023-09-10T04:41:39.031Z,12.13
2023-09-10T04:44:07.584Z,11.97
2023-09-10T04:46:37.225Z,11.80
2023-09-10T04:49:05.564Z,12.03
2023-09-10T04:51:34.966Z,11.80
2023-09-10T04:54:02.996Z,11.93
2023-09-10T04:56:30.885Z,12.23
2023-09-10T04:58:59.001Z,11.20
2023-09-10T05:01:26.999Z,11.63
2023-09-10T05:03:55.092Z,11.57
2023-09-10T05:06:23.018Z,12.93
2023-09-10T05:08:52.298Z,12.03
2023-09-10T05:11:21.817Z,12.67
2023-09-10T05:13:49.971Z,12.33
2023-09-10T05:16:18.338Z,12.20
2023-09-10T05:18:46.435Z,12.83
2023-09-10T05:21:14.903Z,13.20
2023-09-10T05:23:43.267Z,13.20
2023-09-10T05:26:12.898Z,13.13
2023-09-10T05:28:42.455Z,12.80
2023-09-10T05:31:11.781Z,12.03
2023-09-10T05:33:40.016Z,12.30
2023-09-10T05:36:08.168Z,13.33
2023-09-10T05:38:37.580Z,12.80
2023-09-10T05:41:09.567Z,12.37
2023-09-10T05:43:38.980Z,12.50
2023-09-10T05:46:07.780Z,12.47
2023-09-10T05:48:35.898Z,12.33
2023-09-10T05:51:04.427Z,13.00
2023-09-10T05:53:32.558Z,12.23
2023-09-10T05:56:00.882Z,12.57
2023-09-10T05:58:29.158Z,13.03
2023-09-10T06:00:58.780Z,12.70
2023-09-10T06:03:29.787Z,12.77
2023-09-10T06:06:02.473Z,12.70
2023-09-10T06:08:32.211Z,19.70
2023-09-10T06:11:00.258Z,13.10
2023-09-10T06:13:29.652Z,12.50
2023-09-10T06:15:59.414Z,12.03
2023-09-10T06:18:27.912Z,12.23
2023-09-10T06:20:56.501Z,11.10
2023-09-10T06:23:26.209Z,12.00
2023-09-10T06:25:55.089Z,11.23
2023-09-10T06:28:25.335Z,11.90
2023-09-10T06:30:53.479Z,11.75
2023-09-10T06:33:23.354Z,11.98
2023-09-10T06:35:51.629Z,11.05
2023-09-10T06:38:20.007Z,11.73
2023-09-10T06:40:49.682Z,10.95
2023-09-10T06:43:17.631Z,11.00
2023-09-10T06:45:45.661Z,11.13
2023-09-10T06:48:13.694Z,11.32
2023-09-10T06:50:43.595Z,11.80
2023-09-10T06:53:12.411Z,12.20
2023-09-10T06:55:40.755Z,11.77
2023-09-10T06:58:08.778Z,11.40
2023-09-10T07:00:37.071Z,11.40
2023-09-10T07:03:13.152Z,11.88
2023-09-10T07:05:42.882Z,12.88
2023-09-10T07:08:12.303Z,13.05
2023-09-10T07:10:40.454Z,11.07
2023-09-10T07:13:08.922Z,11.15
2023-09-10T07:15:41.337Z,11.60
2023-09-10T07:18:09.256Z,11.75
2023-09-10T07:20:37.623Z,11.30
2023-09-10T07:23:07.125Z,10.98
2023-09-10T07:25:35.133Z,10.82
2023-09-10T07:28:03.009Z,10.25
2023-09-10T07:30:31.036Z,10.25
2023-09-10T07:32:59.050Z,10.77
2023-09-10T07:35:27.406Z,10.52
2023-09-10T07:37:56.127Z,10.85
2023-09-10T07:40:25.460Z,11.68
2023-09-10T07:42:53.698Z,10.27
2023-09-10T07:45:21.637Z,10.57
2023-09-10T07:47:49.736Z,10.90
2023-09-10T07:50:18.937Z,10.63
2023-09-10T07:52:47.015Z,10.27
2023-09-10T07:55:15.322Z,9.85
2023-09-10T07:57:45.079Z,11.23
2023-09-10T08:00:14.551Z,11.20
2023-09-10T08:02:42.794Z,10.27
2023-09-10T08:05:11.131Z,10.20
2023-09-10T08:07:39.289Z,10.70
2023-09-10T08:10:07.863Z,10.52
2023-09-10T08:12:35.749Z,10.63
2023-09-10T08:17:41.533Z,10.18
2023-09-10T08:20:10.076Z,9.60
2023-09-10T08:22:38.852Z,9.50
2023-09-10T08:25:09.421Z,9.55
2023-09-10T08:27:37.592Z,10.38
2023-09-10T08:30:07.131Z,10.32
2023-09-10T08:32:35.032Z,10.18
2023-09-10T08:35:05.140Z,10.15
2023-09-10T08:37:33.115Z,10.48
2023-09-10T08:40:01.261Z,9.60
2023-09-10T08:42:32.432Z,9.70
2023-09-10T08:45:03.195Z,8.80
2023-09-10T08:47:31.939Z,9.57
2023-09-10T08:50:03.598Z,9.38
2023-09-10T08:52:32.794Z,8.85
2023-09-10T08:55:00.827Z,9.77
2023-09-10T08:57:28.986Z,10.10
2023-09-10T08:59:56.767Z,9.13
2023-09-10T09:02:24.960Z,9.05
2023-09-10T09:04:52.891Z,9.68
2023-09-10T09:07:21.481Z,9.23
2023-09-10T09:09:52.282Z,9.13
2023-09-10T09:12:20.081Z,9.88
2023-09-10T09:14:48.357Z,9.30
2023-09-10T09:17:16.464Z,8.90
2023-09-10T09:19:45.019Z,8.52
2023-09-10T09:22:12.780Z,9.07
2023-09-10T09:24:41.722Z,8.20
2023-09-10T09:27:11.051Z,7.75
2023-09-10T09:29:40.319Z,8.60
2023-09-10T09:32:08.132Z,7.38
2023-09-10T09:34:35.905Z,8.20
2023-09-10T09:37:04.146Z,8.05
2023-09-10T09:39:32.488Z,7.22
2023-09-10T09:42:00.356Z,7.28
2023-09-10T09:44:29.940Z,8.25
2023-09-10T09:46:58.400Z,8.23
2023-09-10T09:49:26.868Z,7.25
2023-09-10T09:51:54.951Z,8.00
2023-09-10T09:54:22.772Z,7.43
2023-09-10T09:56:50.623Z,7.53
2023-09-10T09:59:18.421Z,6.95
2023-09-10T10:01:47.723Z,8.05
2023-09-10T10:04:17.104Z,7.47
2023-09-10T10:06:49.243Z,7.78
2023-09-10T10:09:20.222Z,7.55
2023-09-10T10:11:48.116Z,7.05
2023-09-10T10:14:16.001Z,7.10
2023-09-10T10:16:43.948Z,7.20
2023-09-10T10:19:13.204Z,7.63
2023-09-10T10:21:41.005Z,6.78
2023-09-10T10:24:09.568Z,6.63
2023-09-10T10:26:37.445Z,6.30
2023-09-10T10:29:05.378Z,6.55
2023-09-10T10:31:34.728Z,6.68
2023-09-10T10:34:05.299Z,6.95
2023-09-10T10:36:42.208Z,6.97
2023-09-10T10:39:10.749Z,6.90
2023-09-10T10:41:42.103Z,6.85
2023-09-10T10:44:17.043Z,6.93
2023-09-10T10:46:45.508Z,7.22
2023-09-10T10:49:13.796Z,6.68
2023-09-10T10:51:55.988Z,7.05
2023-09-10T10:54:25.117Z,6.65
2023-09-10T10:56:53.133Z,7.78
2023-09-10T10:59:21.027Z,6.57
2023-09-10T11:02:22.990Z,7.85
2023-09-10T11:04:58.317Z,7.57
2023-09-10T11:07:30.239Z,7.47
2023-09-10T11:09:58.788Z,7.18
2023-09-10T11:12:26.658Z,7.15
2023-09-10T11:15:13.671Z,7.20
2023-09-10T11:17:42.782Z,6.97
2023-09-10T11:20:10.868Z,7.35
2023-09-10T11:23:07.629Z,7.55
2023-09-10T11:25:35.780Z,7.10
2023-09-10T11:28:04.323Z,7.55
2023-09-10T11:30:32.183Z,6.93
2023-09-10T11:33:30.651Z,8.27
2023-09-10T11:35:59.673Z,7.50
2023-09-10T11:38:32.333Z,7.15
2023-09-10T11:41:01.051Z,7.03
2023-09-10T11:43:30.333Z,7.47
2023-09-10T11:45:58.872Z,7.70
2023-09-10T11:48:30.082Z,7.40
2023-09-10T11:51:00.165Z,7.75
2023-09-10T11:53:34.204Z,7.43
2023-09-10T11:56:02.742Z,8.25
2023-09-10T11:58:30.894Z,7.30
2023-09-10T12:00:58.976Z,7.60
2023-09-10T12:03:27.069Z,7.85
2023-09-10T12:05:55.299Z,6.60
2023-09-10T12:08:23.866Z,6.63
2023-09-10T12:10:57.351Z,7.68
2023-09-10T12:13:26.760Z,7.53
2023-09-10T12:15:54.866Z,7.32
2023-09-10T12:18:23.773Z,7.00
2023-09-10T12:20:51.973Z,6.95
2023-09-10T12:25:56.677Z,6.93
2023-09-10T12:28:24.909Z,7.53
2023-09-10T12:30:52.906Z,8.05
2023-09-10T12:33:22.356Z,7.50
2023-09-10T12:35:50.173Z,7.45
2023-09-10T12:38:18.048Z,7.60
2023-09-10T12:40:46.551Z,7.57
2023-09-10T12:43:19.409Z,8.43
2023-09-10T12:45:47.310Z,7.90
2023-09-10T12:48:15.394Z,7.35
2023-09-10T12:50:44.212Z,7.10
2023-09-10T12:53:12.116Z,7.32
2023-09-10T12:55:39.895Z,8.05
2023-09-10T12:58:08.756Z,7.05
2023-09-10T13:00:38.386Z,7.45
2023-09-10T13:03:07.011Z,7.80
2023-09-10T13:05:35.385Z,7.38
2023-09-10T13:08:03.635Z,7.65
2023-09-10T13:10:31.586Z,7.63
2023-09-10T13:12:59.433Z,7.38
2023-09-10T13:15:27.164Z,7.25
2023-09-10T13:17:56.464Z,7.70
2023-09-10T13:20:27.025Z,7.18
2023-09-10T13:22:55.068Z,7.07
2023-09-10T13:25:22.974Z,7.30
2023-09-10T13:27:51.072Z,7.60
2023-09-10T13:30:18.802Z,14.77
2023-09-10T13:32:46.806Z,7.70
2023-09-10T13:35:16.329Z,6.95
2023-09-10T13:37:44.105Z,7.32
2023-09-10T13:40:12.884Z,7.53
2023-09-10T13:42:40.765Z,7.50
2023-09-10T13:45:10.178Z,7.68
2023-09-10T13:47:37.976Z,7.80
2023-09-10T13:50:07.070Z,7.72
2023-09-10T13:52:36.216Z,7.32
2023-09-10T13:55:04.460Z,7.07
2023-09-10T13:57:32.301Z,8.27
2023-09-10T14:00:00.096Z,8.13
2023-09-10T14:02:27.943Z,8.00
2023-09-10T14:04:55.811Z,7.50
2023-09-10T14:07:23.540Z,7.88
2023-09-10T14:09:52.795Z,6.85
2023-09-10T14:12:21.819Z,7.75
2023-09-10T14:14:49.640Z,7.00
2023-09-10T14:17:17.498Z,8.18
2023-09-10T14:19:45.355Z,7.07
2023-09-10T14:27:32.297Z,7.55
2023-09-10T14:30:00.049Z,6.72
2023-09-10T14:32:27.979Z,8.02
2023-09-10T14:34:55.748Z,6.53
2023-09-10T14:37:23.505Z,7.57
2023-09-10T14:39:53.307Z,7.80
2023-09-10T14:42:21.099Z,7.70
2023-09-10T14:44:50.163Z,7.82
2023-09-10T14:47:17.899Z,7.03
2023-09-10T14:49:45.873Z,7.05
2023-09-10T14:52:13.596Z,7.68
2023-09-10T14:54:41.412Z,8.00
2023-09-10T14:57:09.237Z,7.10
2023-09-10T14:59:37.073Z,7.60
2023-09-10T15:02:06.277Z,8.10
2023-09-10T15:04:34.168Z,7.07
2023-09-10T15:07:01.871Z,8.35
2023-09-10T15:09:29.621Z,7.68
2023-09-10T15:11:57.433Z,7.15
2023-09-10T15:14:25.259Z,7.47
2023-09-10T15:16:53.039Z,6.95
2023-09-10T15:19:23.966Z,7.07
2023-09-10T15:21:51.674Z,6.43
2023-09-10T15:24:19.463Z,7.07
2023-09-10T15:26:47.172Z,7.10
2023-09-10T15:29:14.954Z,6.70
2023-09-10T15:31:42.728Z,7.22
2023-09-10T15:34:10.506Z,6.68
2023-09-10T15:36:42.500Z,7.32
2023-09-10T15:39:12.313Z,7.03
2023-09-10T15:41:43.423Z,6.97
2023-09-10T15:44:11.299Z,6.60
2023-09-10T15:46:39.399Z,6.35
2023-09-10T15:49:07.205Z,6.50
2023-09-10T15:51:34.932Z,6.30
2023-09-10T15:54:04.082Z,6.60
2023-09-10T15:56:31.902Z,6.43
2023-09-10T15:58:59.703Z,6.47
2023-09-10T16:01:27.915Z,6.80
2023-09-10T16:03:55.840Z,6.88
2023-09-10T16:06:23.623Z,6.10
2023-09-10T16:08:51.444Z,6.55
2023-09-10T16:11:20.644Z,6.55
2023-09-10T16:13:48.430Z,6.10
2023-09-10T16:16:16.216Z,6.85
2023-09-10T16:18:44.070Z,6.50
2023-09-10T16:21:11.812Z,6.43
2023-09-10T16:23:39.893Z,17.38
2023-09-10T16:26:07.848Z,7.20
2023-09-10T16:28:37.054Z,7.35
2023-09-10T16:31:04.919Z,6.55
2023-09-10T16:33:32.731Z,6.28
2023-09-10T16:36:00.580Z,6.25
2023-09-10T16:38:28.326Z,6.40
2023-09-10T16:40:56.375Z,6.40
2023-09-10T16:43:24.180Z,6.40
2023-09-10T16:45:54.553Z,6.47
2023-09-10T16:48:22.350Z,6.65
2023-09-10T16:50:50.361Z,7.18
2023-09-10T16:53:18.228Z,7.00
2023-09-10T16:55:51.909Z,7.50
2023-09-10T16:58:20.673Z,6.53
2023-09-10T17:00:48.577Z,7.50
2023-09-10T17:03:17.896Z,7.72
2023-09-10T17:05:46.048Z,7.40
2023-09-10T17:08:13.843Z,7.18
2023-09-10T17:10:42.247Z,7.50
2023-09-10T17:13:11.789Z,7.72
2023-09-10T17:15:39.653Z,7.20
2023-09-10T17:18:07.420Z,7.43
2023-09-10T17:20:36.784Z,7.57
2023-09-10T17:23:04.795Z,10.85
2023-09-10T17:25:32.631Z,21.48
2023-09-10T17:28:01.533Z,7.85
2023-09-10T17:30:29.277Z,7.82
2023-09-10T17:32:58.296Z,7.38
2023-09-10T17:35:26.249Z,7.47
2023-09-10T17:37:55.504Z,7.40
2023-09-10T17:40:23.634Z,7.38
2023-09-10T17:42:52.418Z,6.60
2023-09-10T17:45:21.866Z,7.38
2023-09-10T17:47:49.702Z,8.05
2023-09-10T17:50:17.527Z,11.18
2023-09-10T17:52:45.335Z,13.32
2023-09-10T17:55:14.432Z,9.07
2023-09-10T17:57:42.183Z,8.18
2023-09-10T18:00:10.881Z,9.57
2023-09-10T18:02:38.713Z,10.75
2023-09-10T18:05:07.426Z,9.18
2023-09-10T18:07:35.488Z,8.63
2023-09-10T18:10:03.643Z,9.30
2023-09-10T18:12:33.214Z,8.55
2023-09-10T18:15:00.964Z,8.48
2023-09-10T18:17:28.777Z,8.63
2023-09-10T18:19:56.543Z,8.93
2023-09-10T18:22:24.288Z,8.35
2023-09-10T18:24:52.014Z,9.23
2023-09-10T18:27:19.773Z,8.68
2023-09-10T18:29:48.994Z,7.82
2023-09-10T18:32:16.761Z,8.70
2023-09-10T18:34:44.517Z,8.25
2023-09-10T18:37:13.755Z,7.72
2023-09-10T18:39:41.552Z,9.00
2023-09-10T18:42:09.284Z,8.98
2023-09-10T18:44:38.114Z,8.40
2023-09-10T18:47:07.935Z,9.25
2023-09-10T18:49:35.742Z,9.20
2023-09-10T18:52:07.399Z,9.10
2023-09-10T18:54:35.167Z,9.27
2023-09-10T18:57:05.615Z,9.13
2023-09-10T18:59:34.340Z,9.90
2023-09-10T19:02:01.152Z,9.45
2023-09-10T19:04:30.254Z,9.02
2023-09-10T19:06:58.014Z,10.43
2023-09-10T19:09:25.855Z,9.70
2023-09-10T19:11:53.627Z,9.48
2023-09-10T19:14:21.485Z,9.75
2023-09-10T19:16:49.577Z,9.73
2023-09-10T19:19:17.310Z,9.43
2023-09-10T19:21:47.269Z,9.50
2023-09-10T19:24:15.138Z,9.30
2023-09-10T19:26:43.258Z,10.02
2023-09-10T19:29:11.197Z,9.52
2023-09-10T19:31:38.980Z,9.88
2023-09-10T19:34:07.370Z,8.82
2023-09-10T19:36:35.990Z,9.60
2023-09-10T19:39:07.261Z,9.98
2023-09-10T19:41:35.262Z,10.32
2023-09-10T19:44:03.032Z,9.30
2023-09-10T19:46:30.869Z,9.95
2023-09-10T19:48:58.709Z,9.43
2023-09-10T19:51:26.471Z,10.32
2023-09-10T19:53:54.366Z,10.15
2023-09-10T19:56:26.768Z,10.27
2023-09-10T19:59:05.411Z,10.20
2023-09-10T20:01:34.456Z,10.65
2023-09-10T20:04:02.181Z,10.27
2023-09-10T20:06:30.550Z,9.93
2023-09-10T20:08:58.331Z,10.07
2023-09-10T20:11:27.761Z,11.02
2023-09-10T20:13:56.043Z,10.95
2023-09-10T20:16:23.883Z,10.95
2023-09-10T20:18:52.160Z,11.48
2023-09-10T20:21:19.911Z,15.43
2023-09-10T20:23:47.837Z,10.25
2023-09-10T20:26:15.667Z,10.13
2023-09-10T20:28:44.817Z,10.20
2023-09-10T20:31:12.626Z,10.52
2023-09-10T20:36:08.877Z,10.50
2023-09-10T20:38:36.975Z,10.48
2023-09-10T20:41:07.845Z,10.55
2023-09-10T20:43:37.714Z,10.50
2023-09-10T20:46:07.096Z,10.45
2023-09-10T20:48:35.053Z,9.98
2023-09-10T20:51:04.177Z,10.57
2023-09-10T20:53:31.988Z,10.68
2023-09-10T20:55:59.791Z,10.52
2023-09-10T20:58:27.498Z,10.80
2023-09-10T21:00:55.340Z,11.63
2023-09-10T21:03:41.799Z,11.77
2023-09-10T21:06:10.215Z,11.40
2023-09-10T21:08:38.236Z,10.75
2023-09-10T21:11:06.226Z,11.95
2023-09-10T21:13:34.038Z,11.73
2023-09-10T21:16:02.263Z,11.35
2023-09-10T21:18:31.610Z,11.43
2023-09-10T21:20:59.675Z,11.60
2023-09-10T21:23:30.941Z,12.35
2023-09-10T21:25:58.699Z,12.77
2023-09-10T21:28:26.565Z,11.95
2023-09-10T21:30:54.325Z,12.35
2023-09-10T21:33:22.343Z,12.02
2023-09-10T21:35:52.947Z,12.20
2023-09-10T21:38:20.991Z,11.65
2023-09-10T21:40:48.883Z,12.32
2023-09-10T21:43:16.710Z,11.27
2023-09-10T21:45:44.443Z,12.48
2023-09-10T21:48:12.507Z,11.48
2023-09-10T21:50:40.349Z,11.43
2023-09-10T21:53:09.542Z,10.18
2023-09-10T21:55:37.295Z,10.00
2023-09-10T21:58:05.649Z,10.05
2023-09-10T22:00:33.403Z,11.75
2023-09-10T22:03:01.328Z,11.20
2023-09-10T22:05:29.284Z,10.55
2023-09-10T22:07:57.081Z,11.77
2023-09-10T22:10:26.438Z,12.18
2023-09-10T22:12:54.354Z,11.82
2023-09-10T22:15:22.263Z,11.73
2023-09-10T22:17:50.073Z,11.60
2023-09-10T22:20:17.909Z,12.95
2023-09-10T22:22:45.792Z,11.35
2023-09-10T22:25:17.279Z,11.98
2023-09-10T22:27:46.739Z,11.15
2023-09-10T22:30:15.233Z,11.93
2023-09-10T22:32:43.137Z,12.68
2023-09-10T22:35:11.030Z,12.05
2023-09-10T22:37:38.742Z,11.80
2023-09-10T22:40:07.668Z,12.20
2023-09-10T22:42:35.570Z,11.63
2023-09-10T22:45:05.207Z,11.25
2023-09-10T22:47:33.100Z,11.15
2023-09-10T22:50:00.844Z,11.25
2023-09-10T22:52:28.639Z,11.30
2023-09-10T22:54:56.321Z,11.63
2023-09-10T22:57:24.133Z,11.10
2023-09-10T22:59:51.964Z,11.52
2023-09-10T23:02:21.260Z,12.57
2023-09-10T23:04:51.236Z,11.27
2023-09-10T23:07:19.158Z,11.38
2023-09-10T23:09:46.887Z,11.48
2023-09-10T23:12:15.695Z,11.73
2023-09-10T23:14:43.542Z,11.05
2023-09-10T23:17:13.344Z,11.85
2023-09-10T23:19:42.469Z,11.60
2023-09-10T23:22:10.316Z,11.40
2023-09-10T23:24:38.056Z,11.27
2023-09-10T23:27:06.561Z,11.52
2023-09-10T23:29:36.059Z,11.43
2023-09-10T23:32:03.942Z,10.70
2023-09-10T23:34:34.259Z,11.15
2023-09-10T23:37:03.409Z,10.75
2023-09-10T23:39:31.136Z,11.40
2023-09-10T23:41:58.994Z,10.20
2023-09-10T23:44:26.763Z,10.75
2023-09-10T23:46:54.699Z,10.65
2023-09-10T23:49:22.474Z,10.88
2023-09-10T23:51:50.569Z,11.10
2023-09-10T23:54:19.729Z,10.70
2023-09-10T23:56:47.664Z,11.00
2023-09-10T23:59:15.437Z,11.13
